Weather observations for the past three days for
Whiteville, Columbus County Municipal Airport
Metric (Imperial)
Date Time (edt) Wind (kph) Vis. (km) Weather Sky Cond. Temperature (ºC) Relative Humidity Wind Chill (°C) Heat Index (°C) Pressure Precipitation (cm)
Air Dwpt 6 hour altimeter (cm) sea level (mb) 1 hr 3 hr 6 hr
Max. Min.
05 03:35 SE 4 11.27 Fog/Mist CLR 24 24 100% 23 76.07 0.0
05 03:15 E 2 11.27 Fair CLR 24 24 100% 23 76.07 0.0
05 02:55 NE 4 4.02 Fog/Mist CLR 24 24 100% 23 76.1 0.0
05 02:35 SW 6 11.27 Fog/Mist CLR 24 23 94% 23 76.07 0.0
05 02:15 SW 6 11.27 Fair CLR 24 24 100% 23 76.1 0.0
05 01:55 NE 7 16.09 Fair CLR 25 24 28.5 24.5 94% 26 76.15 0.0
05 01:35 S 6 16.09 A Few Clouds FEW050 25 24 94% 26 76.15 0.0
05 01:15 NE 11 16.09 Partly Cloudy SCT050 25 24 94% 26 76.17 0.0
05 00:55 S 6 16.09 Fair CLR 25 24 94% 26 76.17 0.0
05 00:35 NE 2 16.09 Fair CLR 25 24 94% 26 76.2 0.0
05 00:15 S 6 16.09 Fair CLR 25 25 100% 25 76.2 0.0
04 23:55 Calm 16.09 Fair CLR 26 25 94% 28 76.23 0.0
04 23:35 Vrbl 6 16.09 Fair CLR 26 25 94% 28 76.2 0.0
04 23:15 SW 9 16.09 Fair CLR 26 25 94% 28 76.2 0.0
04 22:55 S 7 16.09 Fair CLR 26 25 94% 28 76.2 0.0
04 22:35 S 6 16.09 Fair CLR 26 25 94% 28 76.23 0.0
04 22:15 S 7 16.09 Fair CLR 26 25 94% 28 76.25 0.0
04 21:55 S 7 16.09 Fair CLR 26 25 94% 28 76.23 0.0
04 21:35 S 6 16.09 Fair CLR 27 25 89% 31 76.23 0.0
04 21:15 Vrbl 7 16.09 Fair CLR 27 25 89% 31 76.2 0.0
04 20:55 S 6 16.09 Fair CLR 27 24 84% 30 76.17 0.0
04 20:35 S 6 16.09 Fair CLR 27 24 84% 30 76.17 0.0
04 20:15 S 7 16.09 Fair CLR 28 24 79% 32 76.17 0.0
04 19:55 S 6 16.09 Fair CLR 28 24 34.3 28.5 79% 32 76.15 0.0
04 19:35 S 9 16.09 Fair CLR 29 24 74% 34 76.15 0.0
04 19:15 S 9 16.09 Fair CLR 30 24 70% 35 76.12 0.0
04 18:35 S 13 16.09 Fair CLR 31 24 66% 37 76.12 0.0
04 18:15 S 6 16.09 Fair CLR 32 24 63% 38 76.12 0.0
04 17:55 Vrbl 11 16.09 Fair CLR 33 24 59% 39 76.1 0.0
04 17:35 SW 15 16.09 Fair CLR 33 25 63% 41 76.1 0.0
04 17:15 S 9 16.09 Fair CLR 34 24 56% 41 76.1 0.0
04 16:55 S 9 16.09 Fair CLR 34 24 56% 41 76.12 0.0
04 16:35 SW 11 16.09 A Few Clouds FEW045 34 24 56% 41 76.15 0.0
04 16:15 SW 9 16.09 A Few Clouds FEW045 34 23 53% 39 76.17 0.0
04 15:55 Vrbl 6 16.09 Fair CLR 34 24 56% 41 76.2 0.0
04 15:35 Vrbl 2 16.09 Fair CLR 34 23 53% 39 76.23 0.0
04 15:15 SW 9 16.09 Partly Cloudy SCT042 34 23 53% 39 76.25 0.0
04 14:55 W 9 16.09 A Few Clouds FEW042 33 23 56% 38 76.25 0.0
04 14:35 S 9 16.09 Fair CLR 33 23 56% 38 76.28 0.0
04 14:15 SW 11 16.09 A Few Clouds FEW039 33 23 56% 38 76.28 0.0
04 13:55 Vrbl 7 16.09 A Few Clouds FEW039 33 23 33.2 23.6 56% 38 76.3 0.0
04 13:35 SW 11 16.09 Partly Cloudy SCT035 SCT043 SCT050 32 24 63% 38 76.3 0.0
04 13:15 W 13 16.09 Mostly Cloudy BKN035 32 24 63% 38 76.35 0.0
04 12:55 S 9 16.09 Partly Cloudy SCT035 32 24 63% 38 76.35 0.0
04 12:35 SW 7 16.09 Partly Cloudy SCT033 SCT040 32 24 63% 38 76.38 0.0
04 12:15 W 13 16.09 Partly Cloudy SCT031 31 24 66% 37 76.4 0.0
04 11:55 SW 7 16.09 Fair CLR 30 24 70% 35 76.4 0.0
04 11:35 W 11 16.09 A Few Clouds FEW026 30 24 70% 35 76.4 0.0
04 11:15 SW 13 16.09 Mostly Cloudy SCT026 BKN035 31 25 70% 38 76.4 0.0
04 10:55 SW 13 16.09 Mostly Cloudy SCT022 BKN033 29 24 74% 34 76.4 0.0
04 10:35 W 11 16.09 Partly Cloudy SCT020 SCT027 SCT033 30 25 75% 36 76.4 0.0
04 10:15 Vrbl 9 16.09 Mostly Cloudy SCT016 SCT025 BKN033 29 25 79% 35 76.4 0.0
04 09:55 SW 7 16.09 Overcast BKN014 OVC021 28 25 84% 33 76.4 0.0
04 09:35 SW 9 16.09 Mostly Cloudy BKN012 28 26 89% 34 76.38 0.0
04 09:15 SW 11 16.09 Fair CLR 27 26 94% 31 76.38 0.0
04 08:55 SW 9 16.09 Fair CLR 27 26 94% 31 76.4 0.0
04 08:35 Vrbl 4 16.09 Fair CLR 26 25 94% 28 76.38 0.0
04 08:15 Calm 16.09 Partly Cloudy SCT001 25 25 100% 25 76.4 0.0
04 07:55 Calm 16.09 Mostly Cloudy BKN001 24 24 25.2 21.9 100% 23 76.38 0.0
04 07:35 NW 2 4.83 Fog/Mist SCT001 23 23 100% 76.38 0.0
04 07:15 SW 2 0.80 Fog/Mist OVC001 22 22 100% 76.35 0.0
04 06:55 SE 2 0.80 Fog OVC001 23 23 100% 76.35 0.0
04 06:35 SE 2 0.80 Fog BKN001 23 23 100% 76.35 0.0
04 06:15 Calm 1.21 Fog/Mist OVC001 23 22 94% 76.33 0.0
04 05:55 Calm 1.61 Fog/Mist BKN001 23 23 100% 76.33 0.0
04 05:35 SW 2 0.80 Fog VV005 22 22 100% 76.33 0.0
04 05:15 SE 2 2.82 Fog/Mist CLR 23 23 100% 76.3 0.0
04 04:55 NE 4 0.40 Fog VV002 23 23 100% 76.3 0.0
04 04:35 NE 2 16.09 Fair CLR 23 23 100% 76.3 0.0
04 04:15 S 2 2.41 Fog/Mist CLR 23 23 100% 76.3 0.0
04 03:55 E 2 11.27 Fair CLR 24 24 100% 23 76.3 0.0
04 03:35 E 2 2.01 Fog/Mist CLR 24 23 94% 23 76.3 0.0
04 03:15 N 2 6.44 Fog/Mist CLR 24 24 100% 23 76.33 0.0
04 02:55 Calm 16.09 Fair CLR 24 24 100% 23 76.33 0.0
04 02:35 Calm 16.09 Fair CLR 24 24 100% 23 76.33 0.0
04 02:15 S 4 16.09 Fair CLR 25 24 94% 26 76.33 0.0
04 01:55 S 6 16.09 Fair CLR 25 25 28.2 23.8 100% 25 76.35 0.0
04 01:35 S 6 16.09 Fair CLR 25 24 94% 26 76.38 0.0
04 01:15 S 4 16.09 Fair CLR 24 24 100% 23 76.4 0.0
04 00:55 S 4 16.09 Fair CLR 25 24 94% 26 76.4 0.0
04 00:35 S 4 16.09 Fair CLR 25 25 100% 25 76.43 0.0
04 00:15 S 6 16.09 Fair CLR 25 25 100% 25 76.4 0.0
03 23:55 S 4 16.09 Fair CLR 25 25 100% 25 76.43 0.0
03 23:35 S 4 16.09 Fair CLR 24 24 100% 23 76.43 0.0
03 23:15 S 4 16.09 Fair CLR 24 24 100% 23 76.43 0.0
03 22:55 SE 2 16.09 Fair CLR 25 24 94% 26 76.43 0.0
03 22:35 Calm 6.44 Fog/Mist CLR 24 24 100% 23 76.43 0.0
03 22:15 S 2 14.48 Fair CLR 24 24 100% 23 76.43 0.0
03 21:55 Calm 16.09 Fair CLR 25 24 94% 26 76.43 0.0
03 21:36 S 2 16.09 Fair CLR 25 24 94% 26 76.4 0.0
03 21:15 SE 4 16.09 Fair CLR 26 25 94% 28 76.38 0.0
03 20:55 S 2 16.09 Fair CLR 27 25 89% 31 76.38 0.0
03 20:35 Vrbl 4 16.09 Fair CLR 27 24 84% 30 76.33 0.0
03 20:15 Vrbl 6 16.09 Fair CLR 28 24 79% 32 76.33 0.0
03 19:55 S 6 16.09 Fair CLR 28 24 34.8 28.1 79% 32 76.3 0.0
03 19:35 S 7 16.09 Fair CLR 29 24 74% 34 76.3 0.0
03 19:15 S 9 16.09 Fair CLR 29 24 74% 34 76.3 0.0
03 18:55 S 11 16.09 Fair CLR 30 24 70% 35 76.33 0.0
03 18:35 S 9 16.09 Fair CLR 31 23 62% 35 76.33 0.0
03 17:55 Vrbl 9 16.09 Fair CLR 32 22 55% 36 76.33 0.0
03 17:35 S 13 16.09 Fair CLR 32 22 55% 36 76.33 0.0
03 17:15 Vrbl 9 16.09 Fair CLR 33 23 56% 38 76.33 0.0
03 16:55 S 11 16.09 Fair CLR 33 23 56% 38 76.3 0.0
03 16:35 S 17 16.09 Partly Cloudy SCT045 33 23 56% 38 76.3 0.0
03 16:15 S 13 16.09 Partly Cloudy SCT045 SCT050 34 24 56% 41 76.33 0.0
03 15:55 S 9 16.09 Partly Cloudy FEW038 SCT055 SCT065 33 25 63% 41 76.33 0.0
03 15:35 SE 9 16.09 Partly Cloudy FEW050 SCT065 33 25 63% 41 76.35 0.0
03 15:15 Vrbl 9 16.09 Partly Cloudy FEW045 SCT050 33 24 59% 39 76.35 0.0
03 14:55 S 9 16.09 Mostly Cloudy BKN045 BKN050 34 24 56% 41 76.35 0.0
03 14:35 SE 11 16.09 Partly Cloudy SCT043 SCT050 34 24 56% 41 76.38 0.0
03 14:15 E 13 16.09 Fair CLR 34 24 56% 41 76.38 0.0
03 13:55 Vrbl 9 16.09 Fair CLR 34 24 34 24.1 56% 41 76.4 0.0
03 13:35 Vrbl 7 16.09 Fair CLR 34 23 53% 39 76.4 0.0
03 13:15 Vrbl 4 16.09 Fair CLR 33 23 56% 38 76.43 0.0
03 12:55 S 9 16.09 Fair CLR 33 23 56% 38 76.43 0.0
03 12:35 SE 7 16.09 Fair CLR 33 23 56% 38 76.45 0.0
03 12:15 SE 6 16.09 Fair CLR 32 23 59% 37 76.45 0.0
03 11:55 S 9 16.09 Fair CLR 32 23 59% 37 76.48 0.0
03 11:35 Vrbl 11 16.09 Fair CLR 31 23 62% 35 76.48 0.0
03 11:15 S 7 16.09 Fair CLR 31 23 62% 35 76.48 0.0
03 10:55 S 6 16.09 Fair CLR 31 22 59% 35 76.48 0.0
03 10:35 Vrbl 4 16.09 Fair CLR 30 22 62% 33 76.48 0.0
03 10:15 SW 11 16.09 Fair CLR 30 23 66% 34 76.48 0.0
03 09:55 SW 7 16.09 Fair CLR 29 23 70% 33 76.48 0.0
03 09:35 SW 7 16.09 Fair CLR 28 24 79% 32 76.48 0.0
03 09:15 SW 9 16.09 Fair CLR 28 25 84% 33 76.48 0.0
03 08:55 Vrbl 6 16.09 Fair CLR 27 25 89% 31 76.48 0.0
03 08:35 SW 6 16.09 Fair CLR 26 25 94% 28 76.48 0.0
03 08:15 Calm 16.09 Fair CLR 25 24 94% 26 76.48 0.0
03 07:55 Calm 16.09 Fair CLR 24 24 24.4 22.7 100% 23 76.48 0.0
03 07:35 Vrbl 2 16.09 Fair CLR 24 23 94% 23 76.45 0.0
03 07:15 E 2 11.27 Fair CLR 23 23 100% 76.45 0.0
03 06:55 NE 2 11.27 Fair CLR 23 23 100% 76.43 0.0
03 06:35 Calm 11.27 Fair CLR 23 23 100% 76.4 0.0
03 06:15 S 2 14.48 Fair CLR 23 23 100% 76.4 0.0
03 05:55 Calm 9.66 Fog/Mist CLR 23 23 100% 76.4 0.0
03 05:35 W 2 16.09 Fair CLR 23 23 100% 76.4 0.0
03 05:15 Calm 16.09 Fair CLR 24 23 94% 23 76.4 0.0
03 04:55 SE 2 12.87 Fair CLR 23 23 100% 76.38 0.0
03 04:35 NW 2 11.27 Fair CLR 23 23 100% 76.38 0.0
03 04:15 SE 2 12.87 Fair CLR 24 23 94% 23 76.4 0.0
03 03:55 Calm 16.09 Fair CLR 24 24 100% 23 76.38 0.0
03 03:35 SE 2 16.09 Fair CLR 24 24 100% 23 76.38 0.0
03 03:15 Calm 14.48 Fair CLR 24 24 100% 23 76.35 0.0
03 02:55 S 2 16.09 Fair CLR 24 24 100% 23 76.35 0.0
03 02:35 N 4 16.09 Fair CLR 24 24 100% 23 76.35 0.0
03 02:15 SW 2 16.09 Fair CLR 24 24 100% 23 76.35 0.0
03 01:55 S 2 16.09 Fair CLR 24 24 29.4 24.2 100% 23 76.35 0.0
03 01:35 SE 2 16.09 Fair CLR 25 24 94% 26 76.38 0.0
03 01:15 E 2 16.09 Fair CLR 25 24 94% 26 76.38 0.0
03 00:55 SE 2 16.09 Fair CLR 25 24 94% 26 76.38 0.0
03 00:35 Calm 16.09 Fair CLR 25 24 94% 26 76.35 0.0
03 00:15 Calm 16.09 Fair CLR 25 24 94% 26 76.35 0.0
02 23:55 Calm 16.09 Fair CLR 26 24 89% 28 76.38 0.0
02 23:35 SW 6 16.09 Fair CLR 26 24 89% 28 76.35 0.0
02 23:15 SW 9 16.09 Fair CLR 26 24 89% 28 76.35 0.0
02 22:55 SW 9 16.09 Fair CLR 26 24 89% 28 76.35 0.0
02 22:35 SW 7 16.09 Fair CLR 27 24 84% 30 76.4 0.0
02 22:15 S 6 16.09 Partly Cloudy SCT060 27 24 84% 30 76.45 0.0
02 21:55 Vrbl 4 16.09 Mostly Cloudy BKN060 27 24 84% 30 76.48 0.0
02 21:35 SE 6 16.09 Partly Cloudy SCT060 27 24 84% 30 76.45 0.0
02 21:15 Vrbl 4 16.09 Fair CLR 28 24 79% 32 76.43 0.0
02 20:55 S 7 16.09 A Few Clouds FEW060 28 24 79% 32 76.4 0.0
02 20:35 S 7 16.09 Fair CLR 28 25 84% 33 76.38 0.0
02 20:15 S 7 16.09 Fair CLR 29 25 79% 35 76.35 0.0
02 19:55 S 9 16.09 Fair CLR 29 25 35.7 29.3 79% 35 76.35 0.0
02 19:35 S 7 16.09 Fair CLR 30 25 75% 36 76.33 0.0
02 19:16 S 9 16.09 Fair CLR 31 25 70% 38 76.33 0.0
02 18:55 S 9 16.09 Fair CLR 32 25 67% 39 76.33 0.0
02 18:35 S 7 16.09 Fair CLR 32 25 67% 39 76.33 0.0
02 18:15 S 9 16.09 A Few Clouds FEW050 33 25 63% 41 76.33 0.0
02 17:55 Vrbl 9 16.09 Fair CLR 34 24 56% 41 76.3 0.0
02 17:35 SE 7 16.09 Fair CLR 35 23 50% 41 76.3 0.0
02 17:15 SE 6 16.09 Fair CLR 36 22 44% 41 76.3 0.0
02 16:55 S 7 16.09 Fair CLR 35 22 47% 39 76.33 0.0
02 16:35 Vrbl 7 16.09 Fair CLR 35 22 47% 39 76.33 0.0
02 16:15 Vrbl 6 16.09 Fair CLR 35 23 50% 41 76.35 0.0
02 15:55 Vrbl 9 16.09 Fair CLR 35 23 50% 41 76.35 0.0
02 15:35 NW 6 16.09 Fair CLR 35 23 50% 41 76.38 0.0
02 15:15 W 6 16.09 Fair CLR 34 22 50% 38 76.38 0.0
02 14:55 SW 7 16.09 Fair CLR 34 22 50% 38 76.4 0.0
02 14:35 W 4 16.09 Fair CLR 35 22 47% 39 76.4 0.0
02 14:15 W 6 16.09 Fair CLR 34 23 53% 39 76.4 0.0
02 13:56 S 7 16.09 Fair CLR 34 23 53% 39 76.43 0.0
02 13:35 Vrbl 11 16.09 Fair CLR 34 24 56% 41 76.43 0.0
02 13:15 SW 7 16.09 Fair CLR 33 23 56% 38 76.45 0.0
02 12:55 W 7 16.09 Fair CLR 33 23 56% 38 76.45 0.0
02 12:35 W 11 16.09 Fair CLR 33 24 59% 39 76.45 0.0
02 12:15 W 7 16.09 Fair CLR 32 23 59% 37 76.48 0.0
02 11:55 Vrbl 7 16.09 Fair CLR 32 23 59% 37 76.48 0.0
02 11:35 SW 13 16.09 Fair CLR 31 23 62% 35 76.48 0.0
02 11:15 W 9 16.09 Fair CLR 31 23 62% 35 76.48 0.0
02 10:55 W 11 16.09 Fair CLR 31 23 62% 35 76.48 0.0
02 10:36 Vrbl 9 16.09 Fair CLR 30 22 62% 33 76.48 0.0
02 10:15 SW 9 16.09 Fair CLR 30 23 66% 34 76.48 0.0
02 09:55 SW 6 16.09 Fair CLR 29 23 70% 33 76.48 0.0
02 09:35 Vrbl 7 16.09 Fair CLR 28 23 74% 31 76.48 0.0
02 09:15 SW 9 16.09 Fair CLR 27 24 84% 30 76.5 0.0
02 08:55 W 7 16.09 Fair CLR 27 24 84% 30 76.5 0.0
02 08:35 SW 6 16.09 Fair CLR 26 24 89% 28 76.5 0.0
02 08:15 SW 6 16.09 Fair CLR 25 24 94% 26 76.53 0.0
02 07:55 SW 4 16.09 Fair CLR 24 24 24.3 22 100% 23 76.53 0.0
02 07:35 Vrbl 4 12.87 Fair CLR 24 23 94% 23 76.5 0.0
02 07:15 Calm 9.66 Fog/Mist CLR 23 23 100% 76.5 0.0
02 06:55 Vrbl 2 12.87 Fair CLR 22 22 100% 76.48 0.0
02 06:35 Calm 6.44 Fog/Mist CLR 22 22 100% 76.48 0.0
02 06:15 S 2 1.21 Fog/Mist VV005 22 22 100% 76.45 0.0
02 05:55 W 2 1.21 Fog/Mist VV005 22 22 100% 76.45 0.0
02 05:35 Calm 1.21 Fog/Mist VV005 22 22 100% 76.45 0.0
02 05:15 S 2 6.44 Fog/Mist CLR 23 23 100% 76.43 0.0
02 04:55 SW 2 1.21 Fog/Mist VV005 23 23 100% 76.43 0.0
02 04:35 SE 2 16.09 Fair CLR 23 23 100% 76.43 0.0
02 04:15 S 2 16.09 Fair CLR 23 23 100% 76.43 0.0
02 03:55 S 2 4.83 Fog/Mist FEW090 23 23 100% 76.43 0.0
Date Time (edt) Wind (kph) Vis. (km) Weather Sky Cond. Air Dwpt Max. Min. Relative Humidity Wind Chill (°C) Heat Index (°C) altimeter (cm) sea level (mb) 1 hr 3 hr 6 hr
6 hour
Temperature (ºC) Pressure Precipitation (cm)